createdAt,value
2023-01-01T00:01:11.122Z,59.02
2023-01-01T00:08:12.817Z,58.02
2023-01-01T00:15:14.566Z,59.06
2023-01-01T00:22:52.855Z,58.92
2023-01-01T00:29:37.889Z,58.92
2023-01-01T00:36:39.578Z,56.64
2023-01-01T00:43:41.231Z,57.06
2023-01-01T00:50:42.943Z,56.22
2023-01-01T00:57:44.593Z,56.42
2023-01-01T01:04:46.491Z,55.79
2023-01-01T01:11:48.186Z,54.56
2023-01-01T01:18:51.619Z,53.77
2023-01-01T01:25:53.258Z,55.11
2023-01-01T01:32:54.972Z,53.46
2023-01-01T01:39:56.687Z,52.98
2023-01-01T01:46:58.387Z,52.86
2023-01-01T01:54:02.341Z,53.31
2023-01-01T02:01:04.317Z,52.61
2023-01-01T02:08:06.297Z,52.77
2023-01-01T02:15:08.459Z,51.82
2023-01-01T02:22:15.194Z,51.34
2023-01-01T02:29:30.727Z,51.70
2023-01-01T02:36:33.205Z,50.79
2023-01-01T02:43:34.786Z,51.82
2023-01-01T02:50:36.584Z,51.70
2023-01-01T02:57:43.344Z,51.74
2023-01-01T03:05:01.457Z,50.98
2023-01-01T03:12:07.041Z,52.02
2023-01-01T03:19:12.090Z,51.47
2023-01-01T03:26:14.496Z,52.05
2023-01-01T03:33:18.867Z,52.04
2023-01-01T03:40:20.540Z,52.30
2023-01-01T03:47:22.176Z,52.67
2023-01-01T03:54:47.985Z,53.00
2023-01-01T04:01:53.718Z,52.53
2023-01-01T04:08:56.822Z,52.87
2023-01-01T04:15:58.531Z,52.26
2023-01-01T04:23:00.545Z,52.78
2023-01-01T04:30:02.245Z,52.57
2023-01-01T04:37:06.989Z,52.78
2023-01-01T04:44:12.973Z,52.47
2023-01-01T04:51:15.524Z,53.41
2023-01-01T04:58:17.564Z,52.98
2023-01-01T05:05:19.222Z,52.46
2023-01-01T05:12:20.900Z,52.72
2023-01-01T05:19:22.633Z,53.17
2023-01-01T05:26:27.107Z,52.79
2023-01-01T05:33:28.955Z,52.42
2023-01-01T05:40:30.959Z,52.75
2023-01-01T05:47:32.623Z,52.50
2023-01-01T05:54:34.288Z,53.13
2023-01-01T06:01:41.788Z,52.69
2023-01-01T06:08:54.081Z,53.28
2023-01-01T06:16:00.009Z,53.07
2023-01-01T06:23:01.676Z,53.60
2023-01-01T06:30:07.067Z,53.13
2023-01-01T06:37:08.802Z,53.71
2023-01-01T06:44:10.449Z,53.19
2023-01-01T06:51:15.583Z,53.67
2023-01-01T06:58:17.261Z,53.68
2023-01-01T07:05:18.929Z,53.91
2023-01-01T07:12:20.611Z,54.37
2023-01-01T07:19:22.243Z,53.52
2023-01-01T07:26:27.239Z,53.53
2023-01-01T07:33:28.844Z,52.98
2023-01-01T07:40:30.490Z,53.30
2023-01-01T07:47:32.919Z,53.57
2023-01-01T07:54:34.535Z,53.92
2023-01-01T08:01:37.371Z,52.51
2023-01-01T08:08:39.538Z,53.57
2023-01-01T08:15:41.312Z,53.72
2023-01-01T08:22:43.024Z,52.88
2023-01-01T08:29:44.812Z,52.54
2023-01-01T08:36:46.435Z,52.38
2023-01-01T08:43:48.169Z,52.47
2023-01-01T08:50:56.565Z,52.81
2023-01-01T08:57:58.298Z,52.12
2023-01-01T09:04:59.915Z,52.36
2023-01-01T09:12:05.801Z,52.66
2023-01-01T09:19:07.453Z,52.21
2023-01-01T09:26:09.689Z,52.54
2023-01-01T09:33:11.321Z,52.06
2023-01-01T09:40:31.712Z,53.40
2023-01-01T09:47:37.203Z,52.61
2023-01-01T09:54:41.333Z,52.47
2023-01-01T10:02:04.286Z,53.01
2023-01-01T10:09:32.614Z,52.80
2023-01-01T10:16:45.602Z,52.34
2023-01-01T10:24:02.777Z,51.30
2023-01-01T10:31:15.724Z,51.94
2023-01-01T10:38:24.738Z,52.47
2023-01-01T10:45:35.242Z,51.66
2023-01-01T10:52:39.715Z,51.90
2023-01-01T10:59:45.601Z,52.19
2023-01-01T11:06:51.754Z,51.79
2023-01-01T11:13:54.424Z,51.75
2023-01-01T11:20:56.765Z,52.12
2023-01-01T11:28:20.296Z,51.22
2023-01-01T11:35:23.830Z,51.74
2023-01-01T11:42:34.643Z,51.77
2023-01-01T11:49:37.050Z,50.67
2023-01-01T11:56:53.510Z,50.22
2023-01-01T12:04:08.225Z,50.52
2023-01-01T12:11:21.467Z,50.22
2023-01-01T12:18:37.484Z,50.51
2023-01-01T12:25:40.523Z,50.87
2023-01-01T12:33:07.829Z,50.97
2023-01-01T12:40:40.603Z,50.17
2023-01-01T12:47:59.367Z,50.76
2023-01-01T12:55:36.411Z,51.66
2023-01-01T13:02:38.182Z,51.11
2023-01-01T13:09:45.192Z,51.22
2023-01-01T13:16:50.559Z,50.93
2023-01-01T13:23:52.263Z,51.60
2023-01-01T13:30:53.975Z,51.95
2023-01-01T13:37:56.720Z,52.13
2023-01-01T13:44:58.365Z,52.65
2023-01-01T13:52:21.877Z,53.00
2023-01-01T13:59:46.037Z,52.63
2023-01-01T14:06:49.457Z,54.16
2023-01-01T14:13:51.123Z,54.28
2023-01-01T14:20:52.981Z,55.54
2023-01-01T14:27:55.353Z,55.32
2023-01-01T14:35:01.671Z,56.53
2023-01-01T14:42:15.421Z,57.48
2023-01-01T14:49:19.767Z,57.97
2023-01-01T14:56:30.298Z,57.98
2023-01-01T15:03:31.925Z,58.06
2023-01-01T15:10:35.279Z,58.35
2023-01-01T15:17:54.982Z,59.04
2023-01-01T15:24:56.986Z,59.56
2023-01-01T15:32:01.097Z,59.50
2023-01-01T15:39:02.803Z,60.16
2023-01-01T15:46:22.177Z,60.26
2023-01-01T15:53:31.782Z,60.11
2023-01-01T16:00:38.492Z,60.67
2023-01-01T16:07:40.122Z,61.64
2023-01-01T16:14:41.789Z,61.56
2023-01-01T16:21:43.467Z,62.42
2023-01-01T16:28:45.161Z,62.64
2023-01-01T16:35:47.088Z,64.18
2023-01-01T16:42:48.752Z,64.34
2023-01-01T16:49:50.421Z,64.29
2023-01-01T16:56:52.095Z,64.04
2023-01-01T17:03:53.849Z,64.36
2023-01-01T17:11:10.896Z,64.49
2023-01-01T17:18:13.459Z,64.49
2023-01-01T17:25:15.210Z,64.59
2023-01-01T17:32:16.882Z,65.18
2023-01-01T17:39:18.528Z,65.45
2023-01-01T17:46:22.177Z,65.74
2023-01-01T17:53:23.839Z,66.16
2023-01-01T18:00:25.442Z,66.67
2023-01-01T18:07:27.168Z,67.31
2023-01-01T18:14:28.952Z,67.73
2023-01-01T18:21:30.813Z,68.71
2023-01-01T18:28:32.825Z,68.92
2023-01-01T18:35:34.468Z,68.75
2023-01-01T18:42:43.707Z,69.51
2023-01-01T18:50:02.941Z,70.14
2023-01-01T18:57:07.608Z,70.70
2023-01-01T19:04:10.720Z,71.90
2023-01-01T19:11:12.575Z,71.23
2023-01-01T19:18:19.457Z,71.06
2023-01-01T19:25:37.104Z,69.91
2023-01-01T19:32:38.939Z,71.28
2023-01-01T19:39:40.638Z,70.38
2023-01-01T19:46:42.398Z,70.30
2023-01-01T19:53:44.172Z,68.46
2023-01-01T20:00:45.944Z,67.74
2023-01-01T20:07:47.658Z,69.34
2023-01-01T20:14:50.161Z,69.19
2023-01-01T20:22:10.627Z,69.25
2023-01-01T20:29:21.352Z,69.65
2023-01-01T20:36:41.537Z,69.28
2023-01-01T20:43:43.286Z,69.44
2023-01-01T20:50:44.977Z,69.61
2023-01-01T20:57:46.575Z,69.62
2023-01-01T21:04:48.445Z,69.69
2023-01-01T21:11:50.115Z,69.83
2023-01-01T21:18:51.827Z,69.93
2023-01-01T21:25:53.398Z,69.84
2023-01-01T21:32:54.975Z,70.31
2023-01-01T21:39:56.629Z,70.84
2023-01-01T21:47:01.788Z,71.28
2023-01-01T21:54:09.747Z,70.78
2023-01-01T22:01:20.468Z,71.85
2023-01-01T22:08:25.220Z,71.41
2023-01-01T22:15:35.310Z,71.61
2023-01-01T22:22:37.035Z,71.74
2023-01-01T22:29:38.809Z,71.46
2023-01-01T22:36:40.477Z,71.92
2023-01-01T22:43:43.132Z,72.15
2023-01-01T22:50:44.987Z,71.70
2023-01-01T22:57:47.074Z,71.83
2023-01-01T23:04:48.691Z,72.44
2023-01-01T23:11:50.558Z,72.46
2023-01-01T23:18:52.268Z,72.72
2023-01-01T23:25:53.925Z,72.19
2023-01-01T23:32:55.623Z,71.93
2023-01-01T23:39:57.243Z,72.79
2023-01-01T23:46:59.241Z,72.71
2023-01-01T23:54:00.950Z,72.04
